Aviation Digital Data Service (ADDS)

Output produced by METARs form (2201 UTC 03 July 2015)
found at http://aviationweather.gov/adds/metars/
 
METAR text: KSPB 032153Z AUTO 11006KT 10SM CLR 33/17 A2987 RMK AO2 SLP114 T03280167
Conditions at: KSPB (SCAPPOOSE , OR, US) observed 2153 UTC 03 July 2015
Temperature: 32.8°C (91°F)
Dewpoint: 16.7°C (62°F) [RH = 38%]
Pressure (altimeter): 29.87 inches Hg (1011.6 mb)
[Sea-level pressure: 1011.4 mb]
Winds: from the ESE (110 degrees) at 7 MPH (6 knots; 3.1 m/s)
Visibility: 10 or more miles (16+ km)
Ceiling: at least 12,000 feet AGL
Clouds: sky clear below 12,000 feet AGL
Weather: automated observation with no human augmentation;
there may or may not be significant weather present at this time

METAR text: KSPB 032053Z AUTO VRB04KT 10SM CLR 31/17 A2989 RMK AO2 SLP122 T03110167 58018
Conditions at: KSPB (SCAPPOOSE , OR, US) observed 2053 UTC 03 July 2015
Temperature: 31.1°C (88°F)
Dewpoint: 16.7°C (62°F) [RH = 42%]
Pressure (altimeter): 29.89 inches Hg (1012.3 mb)
[Sea-level pressure: 1012.2 mb]
Winds: variable direction winds at 5 MPH (4 knots; 2.1 m/s)
Visibility: 10 or more miles (16+ km)
Ceiling: at least 12,000 feet AGL
Clouds: sky clear below 12,000 feet AGL
Weather: automated observation with no human augmentation;
there may or may not be significant weather present at this time